Time;durP1;ratioP1;P1;durP2;ratioP2;P2;SDS_P1;SDS_P2;PMS_P1;PMS_P2;Temp;Humidity;BMP_temperature;BMP_pressure;BME280_temperature;BME280_humidity;BME280_pressure;Samples;Min_cycle;Max_cycle;Signal;HPM_P1;HPM_P2
2022/01/05 00:01:32;;;;;;;1.00;0.80;;;4.60;99.90;;;3.88;100.00;95698.78;5004516;28;20068;-40
2022/01/05 00:03:58;;;;;;;0.57;0.55;;;4.60;99.90;;;3.80;100.00;95678.22;5016671;28;20038;-41
2022/01/05 00:06:23;;;;;;;1.52;0.63;;;4.60;99.90;;;3.85;100.00;95680.66;5020057;28;20399;-40
2022/01/05 00:08:49;;;;;;;1.23;0.60;;;4.60;99.90;;;3.92;100.00;95691.69;5021544;28;20033;-41
2022/01/05 00:11:15;;;;;;;1.00;0.60;;;4.60;99.90;;;3.98;100.00;95692.31;5018925;28;20104;-44
2022/01/05 00:13:42;;;;;;;0.50;0.50;;;4.70;99.90;;;4.05;100.00;95699.91;5016727;28;20033;-40
2022/01/05 00:16:08;;;;;;;0.52;0.50;;;4.70;99.90;;;4.03;100.00;95678.25;5017756;28;20380;-46
2022/01/05 00:18:34;;;;;;;0.60;0.50;;;4.80;99.90;;;4.12;100.00;95698.75;5012779;28;20017;-40
2022/01/05 00:21:01;;;;;;;0.47;0.40;;;4.80;99.90;;;4.08;100.00;95687.59;5015736;28;20021;-43
2022/01/05 00:23:27;;;;;;;1.15;0.40;;;4.80;99.90;;;4.07;100.00;95695.47;5014856;28;20112;-43
2022/01/05 00:25:52;;;;;;;0.65;0.50;;;4.70;99.90;;;4.04;100.00;95703.41;5014362;28;20068;-43
2022/01/05 00:28:18;;;;;;;0.38;0.30;;;4.70;99.90;;;4.03;100.00;95699.97;5014009;28;20037;-42
2022/01/05 00:30:44;;;;;;;0.40;0.40;;;4.70;99.90;;;4.02;100.00;95693.06;5019718;28;20626;-44
2022/01/05 00:33:10;;;;;;;0.45;0.40;;;4.70;99.90;;;3.96;100.00;95683.69;5019234;28;20018;-41
2022/01/05 00:35:35;;;;;;;0.30;0.30;;;4.70;99.90;;;3.96;100.00;95662.81;5021297;28;20328;-43
2022/01/05 00:38:01;;;;;;;1.15;0.38;;;4.70;99.90;;;3.95;100.00;95660.31;5022656;28;20033;-40
2022/01/05 00:40:27;;;;;;;0.40;0.40;;;4.60;99.90;;;3.90;100.00;95654.41;5023826;28;20090;-43
2022/01/05 00:42:53;;;;;;;0.65;0.43;;;4.60;99.90;;;3.96;100.00;95648.94;5020686;28;20083;-43
2022/01/05 00:45:19;;;;;;;0.63;0.47;;;4.60;99.90;;;3.91;100.00;95653.47;5017202;28;20507;-43
2022/01/05 00:47:45;;;;;;;2.47;0.30;;;4.60;99.90;;;3.79;100.00;95655.66;5013562;28;20121;-44
2022/01/05 00:50:11;;;;;;;0.52;0.40;;;4.50;99.90;;;3.80;100.00;95646.94;5017523;28;20063;-40
2022/01/05 00:52:36;;;;;;;0.20;0.20;;;4.50;99.90;;;3.72;100.00;95645.53;5011666;28;20037;-43
2022/01/05 00:55:03;;;;;;;0.68;0.30;;;4.50;99.90;;;3.66;100.00;95641.41;5012755;28;20049;-46
2022/01/05 00:57:29;;;;;;;0.60;0.50;;;4.40;99.90;;;3.67;100.00;95644.84;5020129;28;20029;-43
2022/01/05 00:59:54;;;;;;;0.30;0.30;;;4.40;99.90;;;3.60;100.00;95633.78;5022364;28;20022;-44
2022/01/05 01:02:20;;;;;;;0.32;0.20;;;4.40;99.90;;;3.59;100.00;95625.13;5013458;28;20033;-42
2022/01/05 01:04:46;;;;;;;2.15;0.20;;;4.30;99.90;;;3.56;100.00;95632.22;5019835;28;20029;-39
2022/01/05 01:07:12;;;;;;;0.45;0.30;;;4.30;99.90;;;3.57;100.00;95632.16;5020582;28;20037;-41
2022/01/05 01:09:37;;;;;;;0.17;0.10;;;4.30;99.90;;;3.58;100.00;95633.00;5019371;28;20025;-42
2022/01/05 01:12:04;;;;;;;0.20;0.20;;;4.30;99.90;;;3.54;100.00;95642.69;5021914;28;20021;-40
2022/01/05 01:14:30;;;;;;;0.22;0.22;;;4.40;99.90;;;3.65;100.00;95657.94;5019496;28;20535;-42
2022/01/05 01:16:55;;;;;;;0.43;0.25;;;4.40;99.90;;;3.66;100.00;95650.97;5020973;28;20030;-40
2022/01/05 01:19:21;;;;;;;0.50;0.32;;;4.40;99.90;;;3.67;100.00;95656.13;5022300;28;20049;-50
2022/01/05 01:21:47;;;;;;;0.95;0.20;;;4.40;99.90;;;3.71;100.00;95647.25;5021708;28;20495;-44
2022/01/05 01:24:13;;;;;;;0.30;0.30;;;4.50;99.90;;;3.69;100.00;95663.88;5022168;28;20033;-38
2022/01/05 01:26:38;;;;;;;0.22;0.20;;;4.40;99.90;;;3.71;100.00;95659.47;5022691;28;20388;-43
2022/01/05 01:29:04;;;;;;;0.40;0.30;;;4.40;99.90;;;3.68;100.00;95668.25;5019213;28;20036;-41
2022/01/05 01:31:30;;;;;;;0.35;0.30;;;4.40;99.90;;;3.68;100.00;95683.03;5020008;28;20065;-41
2022/01/05 01:33:55;;;;;;;0.10;0.10;;;4.40;99.90;;;3.70;100.00;95673.41;5022724;28;20029;-41
2022/01/05 01:36:21;;;;;;;0.77;0.40;;;4.40;99.90;;;3.70;100.00;95686.47;5026128;28;20513;-41
2022/01/05 01:38:47;;;;;;;0.20;0.20;;;4.50;99.90;;;3.73;100.00;95696.75;5023716;28;20038;-40
2022/01/05 01:41:13;;;;;;;0.20;0.20;;;4.40;99.90;;;3.75;100.00;95674.94;5020178;28;20044;-39
2022/01/05 01:43:39;;;;;;;0.38;0.30;;;4.50;99.90;;;3.80;100.00;95682.56;5019302;28;20128;-40
2022/01/05 01:46:08;;;;;;;0.22;0.20;;;4.50;99.90;;;3.82;100.00;95683.38;5025820;28;20080;-40
2022/01/05 01:48:34;;;;;;;0.40;0.20;;;4.50;99.90;;;3.80;100.00;95672.16;5018216;28;20140;-40
2022/01/05 01:50:59;;;;;;;0.30;0.30;;;4.50;99.90;;;3.82;100.00;95673.81;5024622;28;20313;-40
2022/01/05 01:53:25;;;;;;;0.20;0.20;;;4.50;99.90;;;3.85;100.00;95671.97;5024142;28;20057;-42
2022/01/05 01:55:52;;;;;;;0.28;0.10;;;4.60;99.90;;;3.89;100.00;95669.19;5025622;28;20065;-40
2022/01/05 01:58:19;;;;;;;0.20;0.20;;;4.60;99.90;;;4.01;100.00;95675.69;5004867;28;20030;-41
2022/01/05 02:00:45;;;;;;;0.15;0.15;;;4.70;99.90;;;4.01;100.00;95680.91;5005169;28;20115;-42
2022/01/05 02:03:14;;;;;;;0.57;0.30;;;4.70;99.90;;;4.01;100.00;95665.25;5021811;28;20026;-41
2022/01/05 02:05:40;;;;;;;0.20;0.20;;;4.70;99.90;;;3.91;100.00;95664.78;5027427;22;20508;-84
2022/01/05 02:08:06;;;;;;;0.38;0.20;;;4.80;99.90;;;3.96;100.00;95675.88;5005272;28;20040;-83
2022/01/05 02:10:32;;;;;;;1.55;0.25;;;4.80;99.90;;;3.89;100.00;95668.34;5003529;28;20026;-83
2022/01/05 02:12:59;;;;;;;3.40;0.20;;;4.80;99.90;;;4.07;100.00;95711.97;4998941;28;20030;-84
2022/01/05 02:15:25;;;;;;;0.35;0.22;;;4.80;99.90;;;4.14;100.00;95707.38;5007835;28;20125;-84
2022/01/05 02:18:10;;;;;;;0.17;0.17;;;4.80;99.90;;;4.09;100.00;95693.66;4988581;28;20041;-84
2022/01/05 02:20:36;;;;;;;0.95;0.32;;;4.80;99.90;;;4.13;100.00;95696.09;5006055;28;20053;-83
2022/01/05 02:23:03;;;;;;;0.20;0.20;;;4.90;99.90;;;3.98;100.00;95678.41;4971376;28;20116;-83
2022/01/05 02:25:29;;;;;;;0.20;0.20;;;4.80;99.90;;;3.93;100.00;95676.00;4994814;28;20051;-84
2022/01/05 02:27:56;;;;;;;0.65;0.28;;;4.80;99.90;;;4.01;100.00;95692.19;5003800;28;20018;-84
2022/01/05 02:30:27;;;;;;;1.10;0.28;;;4.80;99.90;;;3.57;100.00;95633.91;4991183;28;20119;-84
2022/01/05 02:32:54;;;;;;;0.98;0.30;;;4.80;99.90;;;3.99;100.00;95683.56;4973450;28;20041;-84
2022/01/05 02:35:19;;;;;;;0.20;0.13;;;4.70;99.90;;;3.96;100.00;95691.50;5006360;28;20034;-84
2022/01/05 02:37:51;;;;;;;0.20;0.20;;;4.70;99.90;;;3.97;100.00;95705.44;5008573;28;20029;-84
2022/01/05 02:40:20;;;;;;;0.35;0.32;;;4.70;99.90;;;3.91;100.00;95690.88;4990905;28;20415;-84
2022/01/05 02:42:46;;;;;;;0.40;0.40;;;4.70;99.90;;;3.90;100.00;95676.09;5009597;28;20641;-84
2022/01/05 02:45:14;;;;;;;0.70;0.40;;;4.80;99.90;;;4.04;100.00;95700.81;4995318;28;20041;-84
2022/01/05 02:47:41;;;;;;;0.55;0.40;;;4.80;99.90;;;3.97;100.00;95688.00;4975244;28;20415;-84
2022/01/05 02:50:10;;;;;;;2.55;0.52;;;4.80;99.90;;;3.89;100.00;95670.94;5005881;28;20079;-84
2022/01/05 02:52:36;;;;;;;1.27;0.40;;;4.80;99.90;;;4.05;100.00;95695.53;4990524;28;20113;-84
2022/01/05 02:55:03;;;;;;;0.60;0.40;;;4.80;99.90;;;3.96;100.00;95693.28;4986317;28;20029;-83
2022/01/05 02:57:30;;;;;;;0.30;0.30;;;4.80;99.90;;;4.01;100.00;95702.63;5005319;28;20034;-83
2022/01/05 02:59:56;;;;;;;0.30;0.30;;;4.80;99.90;;;3.97;100.00;95695.00;4975828;28;20514;-84
2022/01/05 03:02:22;;;;;;;1.13;0.55;;;4.80;99.90;;;3.83;100.00;95669.44;4999866;28;20030;-84
2022/01/05 03:04:48;;;;;;;0.32;0.32;;;4.80;99.90;;;4.07;100.00;95711.13;5003272;28;20033;-83
2022/01/05 03:07:15;;;;;;;0.77;0.50;;;4.80;99.90;;;3.92;100.00;95681.28;5000849;28;20033;-84
2022/01/05 03:09:42;;;;;;;1.67;0.32;;;4.80;99.90;;;4.12;100.00;95710.03;5005023;28;20029;-84
2022/01/05 03:12:08;;;;;;;1.00;0.38;;;4.80;99.90;;;4.06;100.00;95693.78;4988856;28;20057;-84
2022/01/05 03:14:34;;;;;;;0.60;0.40;;;4.80;99.90;;;3.99;100.00;95701.84;4989469;28;20551;-84
2022/01/05 03:16:59;;;;;;;3.60;0.60;;;4.80;99.90;;;3.77;100.00;95693.97;5003717;28;20045;-84
2022/01/05 03:19:25;;;;;;;0.70;0.45;;;4.70;99.90;;;3.93;100.00;95694.25;4985492;28;20074;-84
2022/01/05 03:21:51;;;;;;;1.27;0.40;;;4.70;99.90;;;3.85;100.00;95700.66;5005083;28;21717;-84
2022/01/05 03:24:17;;;;;;;0.63;0.40;;;4.60;99.90;;;3.90;100.00;95710.00;4970727;28;20544;-84
2022/01/05 03:26:42;;;;;;;0.50;0.40;;;4.60;99.90;;;3.77;100.00;95691.38;4986667;28;20336;-84
2022/01/05 03:29:08;;;;;;;0.88;0.50;;;4.60;99.90;;;3.97;100.00;95700.22;5022607;28;21196;-83
2022/01/05 03:31:34;;;;;;;0.38;0.38;;;4.60;99.90;;;3.88;100.00;95690.97;5000290;28;20045;-82
2022/01/05 03:34:00;;;;;;;0.43;0.40;;;4.60;99.90;;;3.92;100.00;95694.31;4992566;28;20645;-84
2022/01/05 03:36:26;;;;;;;0.43;0.35;;;4.70;99.90;;;3.90;100.00;95715.22;4998445;28;20097;-83
2022/01/05 03:38:51;;;;;;;1.23;0.40;;;4.70;99.90;;;3.87;100.00;95698.84;4992843;28;20029;-83
2022/01/05 03:41:17;;;;;;;0.40;0.20;;;4.60;99.90;;;3.76;100.00;95670.56;4995431;28;20031;-84
2022/01/05 03:43:43;;;;;;;0.60;0.40;;;4.70;99.90;;;3.73;100.00;95670.69;4990870;28;20504;-84
2022/01/05 03:46:09;;;;;;;0.30;0.20;;;4.60;99.90;;;3.89;100.00;95710.91;5008563;28;20214;-84
2022/01/05 03:48:34;;;;;;;0.32;0.20;;;4.60;99.90;;;3.82;100.00;95704.22;5004867;28;20025;-84
2022/01/05 03:51:00;;;;;;;0.38;0.20;;;4.60;99.90;;;3.78;100.00;95689.59;4992042;28;20083;-84
2022/01/05 03:53:26;;;;;;;0.63;0.30;;;4.60;99.90;;;3.79;100.00;95704.34;5012081;28;20483;-84
2022/01/05 03:55:51;;;;;;;0.70;0.20;;;4.60;99.90;;;3.63;100.00;95685.81;4993463;28;20034;-84
2022/01/05 03:58:17;;;;;;;0.25;0.20;;;4.60;99.90;;;3.77;100.00;95696.59;4995137;28;20597;-84
2022/01/05 04:00:47;;;;;;;0.15;0.13;;;4.60;99.90;;;3.77;100.00;95695.75;5008097;28;20117;-84
2022/01/05 04:03:13;;;;;;;0.17;0.17;;;4.60;99.90;;;3.85;100.00;95718.91;4994158;28;20037;-84
2022/01/05 04:05:39;;;;;;;0.25;0.25;;;4.60;99.90;;;3.62;100.00;95689.31;4989563;28;20034;-84
2022/01/05 04:08:05;;;;;;;0.17;0.13;;;4.60;99.90;;;3.78;100.00;95713.06;5006352;28;20041;-84
2022/01/05 04:10:31;;;;;;;0.20;0.20;;;4.60;99.90;;;3.81;100.00;95728.63;5007404;28;20034;-84
2022/01/05 04:12:57;;;;;;;0.20;0.20;;;4.60;99.90;;;3.87;100.00;95737.97;5010924;28;20125;-84
2022/01/05 04:15:23;;;;;;;0.20;0.20;;;4.70;99.90;;;3.87;100.00;95744.03;4988972;28;20091;-84
2022/01/05 04:17:48;;;;;;;0.68;0.30;;;4.70;99.90;;;3.74;100.00;95730.59;4991144;28;20120;-84
2022/01/05 04:20:17;;;;;;;0.20;0.20;;;4.70;99.90;;;3.87;100.00;95757.06;5001586;28;20120;-84
2022/01/05 04:22:44;;;;;;;0.10;0.10;;;4.70;99.90;;;4.02;100.00;95766.09;4966201;28;20397;-84
2022/01/05 04:25:11;;;;;;;0.20;0.20;;;4.70;99.90;;;3.91;100.00;95755.19;4973750;28;20121;-84
2022/01/05 04:27:37;;;;;;;0.55;0.28;;;4.70;99.90;;;3.86;100.00;95755.38;4999659;28;20321;-84
2022/01/05 04:30:08;;;;;;;0.45;0.20;;;4.70;99.90;;;3.96;100.00;95782.78;4985703;28;20069;-83
2022/01/05 04:32:35;;;;;;;0.53;0.30;;;4.70;99.90;;;3.80;100.00;95751.25;4970031;28;20026;-84
2022/01/05 04:35:02;;;;;;;0.30;0.30;;;4.70;99.90;;;3.97;100.00;95789.72;5005643;28;20021;-84
2022/01/05 04:37:27;;;;;;;0.38;0.20;;;4.70;99.90;;;3.83;100.00;95763.31;4986129;28;20054;-84
2022/01/05 04:39:53;;;;;;;0.35;0.20;;;4.70;99.90;;;3.91;100.00;95773.44;5004004;28;20061;-84
2022/01/05 04:42:19;;;;;;;0.22;0.20;;;4.70;99.90;;;3.85;100.00;95784.97;4988468;28;20026;-83
2022/01/05 04:44:45;;;;;;;0.45;0.30;;;4.70;99.90;;;3.84;100.00;95796.31;5003761;28;20037;-84
2022/01/05 04:47:12;;;;;;;0.57;0.30;;;4.70;99.90;;;3.88;100.00;95807.47;5004248;28;20076;-84
2022/01/05 04:49:38;;;;;;;0.32;0.13;;;4.60;99.90;;;3.82;100.00;95817.22;4987339;28;20448;-84
2022/01/05 04:52:05;;;;;;;0.52;0.30;;;4.60;99.90;;;3.67;100.00;95776.03;5002995;28;20026;-84
2022/01/05 04:54:30;;;;;;;0.63;0.30;;;4.60;99.90;;;3.62;100.00;95791.00;5003091;28;20038;-83
2022/01/05 04:56:56;;;;;;;0.30;0.30;;;4.60;99.90;;;3.64;100.00;95799.59;5003088;28;20034;-84
2022/01/05 04:59:22;;;;;;;0.45;0.20;;;4.60;99.90;;;3.73;100.00;95816.69;4983741;28;20399;-84
2022/01/05 05:01:48;;;;;;;0.70;0.25;;;4.50;99.90;;;3.63;100.00;95810.94;4986777;28;20116;-84
2022/01/05 05:04:13;;;;;;;0.20;0.20;;;4.50;99.90;;;3.47;100.00;95789.78;4988012;28;20044;-83
2022/01/05 05:06:39;;;;;;;0.50;0.30;;;4.50;99.90;;;3.45;100.00;95778.56;4969269;28;20124;-83
2022/01/05 05:09:05;;;;;;;3.33;0.40;;;4.50;99.90;;;3.55;100.00;95820.78;5002672;28;20045;-84
2022/01/05 05:11:31;;;;;;;1.25;0.30;;;4.40;99.90;;;3.60;100.00;95832.75;4967723;28;20026;-84
2022/01/05 05:13:57;;;;;;;1.65;0.32;;;4.40;99.90;;;3.59;100.00;95827.59;5008780;28;20094;-84
2022/01/05 05:16:25;;;;;;;0.35;0.35;;;4.40;99.90;;;3.64;100.00;95846.53;4969506;28;20109;-84
2022/01/05 05:18:51;;;;;;;0.43;0.30;;;4.40;99.90;;;3.67;100.00;95850.81;5001892;28;20034;-84
2022/01/05 05:21:16;;;;;;;0.40;0.40;;;4.40;99.90;;;3.35;100.00;95886.59;4989891;28;20575;-84
2022/01/05 05:23:42;;;;;;;1.75;0.47;;;4.40;99.90;;;2.68;100.00;95891.25;5001731;28;20049;-83
2022/01/05 05:26:08;;;;;;;1.30;0.80;;;3.90;99.90;;;2.28;100.00;95912.41;4969681;28;20040;-83
2022/01/05 05:28:34;;;;;;;0.57;0.50;;;3.50;99.90;;;1.70;100.00;95901.81;4969546;28;20044;-82
2022/01/05 05:30:59;;;;;;;1.63;1.00;;;3.10;99.90;;;1.60;100.00;95931.50;4996528;28;20062;-83
2022/01/05 05:33:25;;;;;;;1.23;0.80;;;2.80;99.90;;;1.31;100.00;95918.38;4971686;28;20072;-83
2022/01/05 05:35:51;;;;;;;0.82;0.73;;;2.50;99.90;;;1.23;100.00;95959.25;4984050;28;20030;-83
2022/01/05 05:38:17;;;;;;;2.30;0.82;;;2.40;99.90;;;0.94;100.00;95944.34;4988706;28;20021;-83
2022/01/05 05:40:43;;;;;;;1.77;0.88;;;2.10;99.90;;;0.97;100.00;95978.03;4983028;28;20084;-83
2022/01/05 05:43:12;;;;;;;1.70;0.82;;;2.00;99.90;;;0.55;100.00;95954.69;5000849;28;20038;-83
2022/01/05 05:45:38;;;;;;;1.40;0.70;;;1.80;99.90;;;0.67;100.00;95984.72;5002931;28;20100;-84
2022/01/05 05:48:04;;;;;;;1.10;0.80;;;1.70;99.90;;;0.47;100.00;95996.34;5011572;28;20245;-84
2022/01/05 05:50:30;;;;;;;1.23;0.90;;;1.60;99.90;;;0.35;100.00;95997.44;4989881;28;20034;-84
2022/01/05 05:52:56;;;;;;;1.27;0.90;;;1.50;99.90;;;0.36;100.00;96012.13;5006885;28;20080;-84
2022/01/05 05:55:22;;;;;;;1.30;0.90;;;1.40;99.90;;;0.47;100.00;96024.88;5004061;28;20407;-84
2022/01/05 05:57:48;;;;;;;2.05;1.00;;;1.40;99.90;;;0.31;100.00;96000.13;5007951;28;20263;-84
2022/01/05 06:00:14;;;;;;;2.50;1.30;;;1.40;99.90;;;0.32;100.00;95999.22;5005613;28;20069;-83
2022/01/05 06:02:40;;;;;;;41.83;3.22;;;1.40;99.90;;;0.31;100.00;96015.69;4974802;28;20034;-83
2022/01/05 06:05:06;;;;;;;1.70;1.08;;;1.40;99.90;;;0.44;100.00;96024.94;4991163;28;20072;-83
2022/01/05 06:07:32;;;;;;;2.65;1.52;;;1.40;99.90;;;0.43;100.00;96011.97;5010651;28;20046;-83
2022/01/05 06:09:59;;;;;;;5.50;1.48;;;1.50;99.90;;;0.53;100.00;96029.94;5009014;28;20294;-83
2022/01/05 06:12:25;;;;;;;3.05;1.60;;;1.50;99.90;;;0.51;100.00;96039.50;4968532;28;20025;-83
2022/01/05 06:14:51;;;;;;;4.38;1.70;;;1.50;99.90;;;0.46;100.00;96037.88;4974637;28;20056;-83
2022/01/05 06:17:18;;;;;;;3.75;1.70;;;1.50;99.90;;;0.27;100.00;96001.03;5008097;28;20465;-83
2022/01/05 06:19:43;;;;;;;1.60;1.45;;;1.50;99.90;;;0.50;100.00;96049.88;5010285;28;20026;-84
2022/01/05 06:22:10;;;;;;;2.97;1.70;;;1.50;99.90;;;0.46;100.00;96049.09;5003384;28;20095;-83
2022/01/05 06:24:38;;;;;;;7.38;1.65;;;1.50;99.90;;;0.70;100.00;96086.72;4976691;28;20491;-83
2022/01/05 06:27:05;;;;;;;4.95;1.98;;;1.60;99.90;;;0.62;100.00;96064.38;4987962;28;20495;-84
2022/01/05 06:29:30;;;;;;;7.05;2.15;;;1.60;99.90;;;0.70;100.00;96085.81;5006605;28;20061;-84
2022/01/05 06:31:56;;;;;;;11.52;2.30;;;1.70;99.90;;;0.82;100.00;96095.13;4990157;28;20157;-83
2022/01/05 06:34:22;;;;;;;4.45;1.77;;;1.70;99.90;;;0.74;100.00;96087.50;4980952;28;20120;-84
2022/01/05 06:36:48;;;;;;;3.13;2.00;;;1.80;99.90;;;0.81;100.00;96109.84;5008519;28;20061;-84
2022/01/05 06:39:13;;;;;;;2.92;1.77;;;1.80;99.90;;;0.73;100.00;96088.38;5007306;28;20125;-83
2022/01/05 06:41:39;;;;;;;3.67;2.13;;;1.80;99.90;;;0.88;100.00;96107.97;4993275;28;20041;-84
2022/01/05 06:44:05;;;;;;;4.03;1.80;;;1.80;99.90;;;0.94;100.00;96120.84;5007929;28;20077;-84
2022/01/05 06:46:31;;;;;;;10.23;3.38;;;1.90;99.90;;;0.82;100.00;96108.94;4998231;28;20026;-84
2022/01/05 06:48:56;;;;;;;3.90;1.70;;;1.90;99.90;;;0.82;100.00;96108.09;5006219;28;20118;-83
2022/01/05 06:51:22;;;;;;;2.70;1.55;;;1.90;99.90;;;0.80;100.00;96094.31;4992589;28;20038;-84
2022/01/05 06:53:48;;;;;;;3.53;1.50;;;1.90;99.90;;;0.94;100.00;96124.28;4969818;28;20030;-84
2022/01/05 06:56:15;;;;;;;2.55;1.77;;;2.00;99.90;;;0.97;100.00;96133.78;4975423;28;20038;-84
2022/01/05 06:58:41;;;;;;;3.75;1.75;;;2.00;99.90;;;0.94;100.00;96145.06;5008524;28;20406;-83
2022/01/05 07:01:06;;;;;;;2.47;1.40;;;1.90;99.90;;;0.97;100.00;96143.28;4994829;28;20033;-84
2022/01/05 07:03:32;;;;;;;2.83;1.70;;;2.00;99.90;;;0.95;100.00;96139.00;4988695;28;20479;-84
2022/01/05 07:05:58;;;;;;;3.15;2.13;;;1.90;99.90;;;0.87;100.00;96134.84;4988185;28;20041;-83
2022/01/05 07:08:24;;;;;;;2.53;1.27;;;1.90;99.90;;;0.91;100.00;96146.84;5005453;28;20495;-84
2022/01/05 07:10:49;;;;;;;2.58;1.48;;;1.90;99.90;;;0.94;100.00;96154.59;4970676;28;20088;-84
2022/01/05 07:13:15;;;;;;;3.17;1.48;;;1.90;99.90;;;1.01;100.00;96156.19;5001577;28;20030;-83
2022/01/05 07:15:41;;;;;;;1.73;1.10;;;1.90;99.90;;;0.96;100.00;96165.81;4999305;28;20414;-84
2022/01/05 07:18:06;;;;;;;3.22;1.40;;;1.90;99.90;;;0.88;100.00;96168.56;4986786;28;20044;-83
2022/01/05 07:20:32;;;;;;;3.72;1.20;;;1.90;99.90;;;0.79;100.00;96166.13;4997439;28;20034;-83
2022/01/05 07:22:58;;;;;;;5.22;1.42;;;1.90;99.90;;;0.73;100.00;96161.03;5004415;28;20034;-83
2022/01/05 07:25:23;;;;;;;2.38;1.30;;;1.90;99.90;;;0.67;100.00;96148.19;4987131;28;20399;-83
2022/01/05 07:27:49;;;;;;;1.95;1.25;;;1.90;99.90;;;0.88;100.00;96188.44;5005299;28;20080;-83
2022/01/05 07:30:15;;;;;;;3.67;1.40;;;1.90;99.90;;;0.98;100.00;96189.16;5008023;28;20046;-83
2022/01/05 07:32:40;;;;;;;2.45;1.27;;;2.00;99.90;;;0.93;100.00;96190.09;5003780;28;20060;-83
2022/01/05 07:35:07;;;;;;;3.58;1.30;;;1.90;99.90;;;1.02;100.00;96214.16;4992773;28;20026;-83
2022/01/05 07:37:33;;;;;;;2.65;1.17;;;2.00;99.90;;;0.80;100.00;96179.94;5007134;28;20066;-83
2022/01/05 07:39:59;;;;;;;2.00;1.30;;;1.90;99.90;;;0.84;100.00;96204.97;4986443;28;20033;-83
2022/01/05 07:42:24;;;;;;;3.53;1.40;;;1.90;99.90;;;0.75;100.00;96187.81;5004884;28;20084;-83
2022/01/05 07:44:51;;;;;;;1.75;1.20;;;1.90;99.90;;;0.70;100.00;96194.81;5005163;28;20601;-83
2022/01/05 07:47:17;;;;;;;3.53;1.30;;;1.90;99.90;;;0.84;100.00;96215.34;4985942;28;20048;-84
2022/01/05 07:49:42;;;;;;;4.53;1.40;;;1.80;99.90;;;0.76;100.00;96218.06;4994711;28;20030;-83
2022/01/05 07:52:08;;;;;;;5.28;1.45;;;1.80;99.90;;;0.71;100.00;96220.75;4984420;28;20065;-84
2022/01/05 07:54:35;;;;;;;2.53;1.50;;;1.70;99.90;;;0.75;100.00;96219.81;4989456;28;20040;-83
2022/01/05 07:57:01;;;;;;;5.97;1.50;;;1.80;99.90;;;0.69;100.00;96235.47;5011605;28;20095;-84
2022/01/05 07:59:26;;;;;;;4.40;1.55;;;1.70;99.90;;;0.47;100.00;96218.56;5003861;28;20436;-83
2022/01/05 08:01:52;;;;;;;5.82;1.70;;;1.60;99.90;;;0.51;100.00;96233.19;4988199;28;20068;-84
2022/01/05 08:04:19;;;;;;;4.65;2.00;;;1.60;99.90;;;0.48;100.00;96235.84;5003741;28;20038;-84
2022/01/05 08:06:44;;;;;;;3.15;2.00;;;1.60;99.90;;;0.63;100.00;96258.06;5003273;28;20049;-83
2022/01/05 08:09:10;;;;;;;5.45;2.20;;;1.60;99.90;;;0.56;100.00;96252.16;5005560;28;20407;-84
2022/01/05 08:11:36;;;;;;;6.95;2.50;;;1.60;99.90;;;0.25;100.00;96220.63;4974296;28;20033;-84
2022/01/05 08:14:02;;;;;;;4.43;1.95;;;1.50;99.90;;;0.33;100.00;96240.38;4991120;28;20026;-84
2022/01/05 08:16:28;;;;;;;5.20;2.40;;;1.40;99.90;;;0.39;100.00;96262.75;5005660;28;20061;-84
2022/01/05 08:18:53;;;;;;;5.18;2.47;;;1.40;99.90;;;0.42;100.00;96275.69;5006715;28;20041;-83
2022/01/05 08:21:20;;;;;;;6.35;2.20;;;1.40;99.90;;;0.30;100.00;96266.34;4986648;28;20036;-84
2022/01/05 08:23:46;;;;;;;4.68;2.22;;;1.40;99.90;;;0.18;100.00;96264.81;4984552;28;20117;-84
2022/01/05 08:26:11;;;;;;;5.90;2.92;;;1.30;99.90;;;0.28;100.00;96278.47;4986932;28;20034;-84
2022/01/05 08:28:37;;;;;;;4.43;2.47;;;1.30;99.90;;;0.23;100.00;96292.41;4989261;28;20036;-84
2022/01/05 08:31:03;;;;;;;7.38;2.60;;;1.30;99.90;;;0.27;100.00;96305.31;4985254;28;20034;-84
2022/01/05 08:33:29;;;;;;;7.68;2.47;;;1.20;99.90;;;0.21;100.00;96304.53;4974117;28;20030;-83
2022/01/05 08:35:55;;;;;;;5.50;2.33;;;1.20;99.90;;;0.23;100.00;96310.53;4965006;28;20164;-84
2022/01/05 08:38:21;;;;;;;6.00;2.10;;;1.20;99.90;;;0.15;100.00;96308.06;4991061;28;20029;-84
2022/01/05 08:40:49;;;;;;;5.68;2.03;;;1.20;99.90;;;0.17;100.00;96309.75;4999121;28;20037;-84
2022/01/05 08:43:16;;;;;;;3.78;1.90;;;1.20;99.90;;;0.16;100.00;96331.38;4972538;28;20455;-84
2022/01/05 08:45:43;;;;;;;7.85;2.60;;;1.10;99.90;;;0.02;100.00;96312.56;4985946;28;20036;-83
2022/01/05 08:48:10;;;;;;;3.95;2.00;;;1.10;99.90;;;0.06;100.00;96337.56;5004984;28;20097;-83
2022/01/05 08:50:37;;;;;;;5.40;2.08;;;1.00;99.90;;;0.01;100.00;96341.94;4994700;28;20133;-84
2022/01/05 08:53:04;;;;;;;7.28;2.17;;;1.00;99.90;;;0.07;100.00;96341.00;5003369;28;20057;-84
2022/01/05 08:55:36;;;;;;;3.47;2.03;;;0.90;99.90;;;0.02;100.00;96353.16;4988191;28;20029;-85
2022/01/05 08:58:02;;;;;;;8.23;2.55;;;1.00;99.90;;;-0.06;100.00;96337.72;5007635;28;20045;-83
2022/01/05 09:00:30;;;;;;;7.43;2.13;;;1.00;99.90;;;-0.11;100.00;96342.09;4991952;28;20079;-86
2022/01/05 09:02:56;;;;;;;6.18;2.35;;;1.00;99.90;;;0.10;100.00;96377.25;4988123;28;20030;-83
2022/01/05 09:05:23;;;;;;;6.18;2.30;;;1.10;99.90;;;0.26;100.00;96371.00;4994668;28;20030;-83
2022/01/05 09:07:48;;;;;;;5.55;1.98;;;1.20;99.90;;;0.35;100.00;96373.47;4993214;28;20033;-85
2022/01/05 09:10:14;;;;;;;8.25;2.40;;;1.30;99.90;;;0.40;100.00;96370.84;5004833;28;20585;-83
2022/01/05 09:12:40;;;;;;;8.35;2.30;;;1.40;99.90;;;0.53;100.00;96367.19;5006544;28;20046;-87
2022/01/05 09:15:06;;;;;;;8.98;2.20;;;1.50;99.90;;;0.43;100.00;96339.69;4975919;28;20387;-85
2022/01/05 09:17:32;;;;;;;4.50;1.90;;;1.70;99.90;;;0.81;100.00;96379.78;4990731;28;20025;-85
2022/01/05 09:19:58;;;;;;;7.10;1.80;;;1.80;99.90;;;0.90;100.00;96396.97;5009594;28;20018;-84
2022/01/05 09:22:23;;;;;;;3.92;1.90;;;1.90;99.90;;;1.04;100.00;96408.00;4991451;28;20018;-84
2022/01/05 09:24:53;;;;;;;7.15;2.55;;;2.00;99.90;;;1.22;100.00;96411.16;5004111;28;20476;-83
2022/01/05 09:27:19;;;;;;;6.00;1.80;;;2.30;99.90;;;1.34;100.00;96408.38;5002458;28;20153;-85
2022/01/05 09:29:45;;;;;;;6.05;1.63;;;2.40;99.90;;;1.40;100.00;96430.78;4991755;28;20026;-85
2022/01/05 09:32:11;;;;;;;5.18;1.85;;;2.50;99.90;;;1.24;100.00;96392.09;4979107;28;20026;-84
2022/01/05 09:34:40;;;;;;;3.53;1.77;;;2.50;99.90;;;1.53;100.00;96427.13;5005309;28;20030;-85
2022/01/05 09:37:13;;;;;;;7.80;1.60;;;2.50;99.90;;;1.31;100.00;96413.59;5002509;28;20060;-85
2022/01/05 09:42:23;;;;;;;4.38;1.55;;;2.50;99.90;;;1.41;100.00;96409.97;4998155;28;20036;-84
2022/01/05 09:44:52;;;;;;;8.55;1.73;;;2.50;99.90;;;1.59;100.00;96441.75;5003446;28;20066;-85
2022/01/05 09:48:11;;;;;;;5.18;1.80;;;2.50;99.90;;;1.40;100.00;96457.66;5012223;28;20038;-85
2022/01/05 09:50:52;;;;;;;5.78;1.48;;;2.40;99.90;;;1.09;100.00;96428.66;5005511;28;20061;-85
2022/01/05 09:53:18;;;;;;;5.13;1.70;;;2.40;99.90;;;1.24;100.00;96450.94;4993419;28;20084;-84
2022/01/05 09:55:45;;;;;;;3.90;1.48;;;2.40;99.90;;;1.15;100.00;96446.78;4993429;28;20042;-85
2022/01/05 09:58:11;;;;;;;6.10;2.28;;;2.30;99.90;;;1.11;100.00;96445.09;4990412;28;20021;-85
2022/01/05 10:00:37;;;;;;;6.95;1.85;;;2.30;99.90;;;1.14;100.00;96432.06;4996580;28;20029;-85
2022/01/05 10:03:04;;;;;;;7.20;1.92;;;2.30;99.90;;;1.19;100.00;96476.16;5011177;28;20033;-85
2022/01/05 10:05:30;;;;;;;5.07;1.40;;;2.30;99.90;;;1.00;97.66;96454.78;5000582;28;20029;-85
2022/01/05 10:07:55;;;;;;;5.57;1.60;;;2.20;99.90;;;0.95;97.12;96455.72;4994954;28;20037;-85
2022/01/05 10:10:21;;;;;;;9.85;1.80;;;2.10;99.90;;;0.99;97.51;96460.84;5008986;28;20431;-85
2022/01/05 10:12:47;;;;;;;4.18;1.40;;;2.20;99.90;;;1.15;96.16;96467.56;5010379;28;20173;-85
2022/01/05 10:15:13;;;;;;;10.60;1.70;;;2.20;99.90;;;1.13;95.22;96467.56;5014304;28;20030;-85
2022/01/05 10:17:40;;;;;;;9.23;1.75;;;2.30;99.90;;;0.88;89.38;96456.69;5007046;28;20026;-85
2022/01/05 10:20:10;;;;;;;6.43;1.70;;;2.20;99.90;;;0.95;95.52;96488.59;5011564;28;20044;-84
2022/01/05 10:22:44;;;;;;;11.30;1.85;;;2.10;99.90;;;0.78;92.33;96494.00;4988412;28;20194;-85
2022/01/05 10:25:21;;;;;;;9.70;1.75;;;1.90;99.90;;;0.63;97.21;96474.31;4996380;28;20022;-85